createdAt,value
2023-04-29T00:00:01.781Z,12.79
2023-04-29T00:07:01.366Z,12.79
2023-04-29T00:14:02.284Z,12.59
2023-04-29T00:21:01.991Z,12.66
2023-04-29T00:28:02.115Z,12.49
2023-04-29T00:35:02.408Z,12.49
2023-04-29T00:42:01.900Z,12.36
2023-04-29T00:49:01.881Z,12.18
2023-04-29T00:56:01.549Z,12.18
2023-04-29T01:00:02.190Z,12.03
2023-04-29T01:07:01.785Z,12.05
2023-04-29T01:14:02.216Z,12.05
2023-04-29T01:21:02.215Z,12
2023-04-29T01:28:01.819Z,11.85
2023-04-29T01:35:01.648Z,11.85
2023-04-29T01:42:02.177Z,11.86
2023-04-29T01:49:01.458Z,11.79
2023-04-29T01:56:01.757Z,11.77
2023-04-29T02:00:02.334Z,11.77
2023-04-29T02:07:01.443Z,11.48
2023-04-29T02:14:02.132Z,11.44
2023-04-29T02:21:02.213Z,11.44
2023-04-29T02:28:01.963Z,11.19
2023-04-29T02:35:01.855Z,11.19
2023-04-29T02:42:02.261Z,11.19
2023-04-29T02:49:01.799Z,10.96
2023-04-29T02:56:01.472Z,10.92
2023-04-29T03:00:02.045Z,10.92
2023-04-29T03:07:01.910Z,10.91
2023-04-29T03:14:01.812Z,10.83
2023-04-29T03:21:02.116Z,10.83
2023-04-29T03:28:01.568Z,10.63
2023-04-29T03:35:02.024Z,10.6
2023-04-29T03:42:02.264Z,10.5
2023-04-29T03:49:02.169Z,10.5
2023-04-29T03:56:02.285Z,10.56
2023-04-29T04:00:01.861Z,10.56
2023-04-29T04:07:01.836Z,10.47
2023-04-29T04:14:01.925Z,10.46
2023-04-29T04:21:01.973Z,10.38
2023-04-29T04:28:01.879Z,10.38
2023-04-29T04:35:02.137Z,10.33
2023-04-29T04:42:01.749Z,10.27
2023-04-29T04:49:02.326Z,10.21
2023-04-29T04:56:01.761Z,10.21
2023-04-29T05:00:02.352Z,10.25
2023-04-29T05:07:01.452Z,10.25
2023-04-29T05:14:02.253Z,10.2
2023-04-29T05:21:01.353Z,10.24
2023-04-29T05:28:01.543Z,10.19
2023-04-29T05:35:02.726Z,10.19
2023-04-29T05:42:02.179Z,10.2
2023-04-29T05:49:01.560Z,10.14
2023-04-29T05:56:02.256Z,10.14
2023-04-29T06:00:01.827Z,10.19
2023-04-29T06:07:01.594Z,10.25
2023-04-29T06:14:02.039Z,10.25
2023-04-29T06:21:01.724Z,10.27
2023-04-29T06:28:01.379Z,10.4
2023-04-29T06:35:02.449Z,10.35
2023-04-29T06:42:02.064Z,10.35
2023-04-29T06:49:02.133Z,10.3
2023-04-29T06:56:01.536Z,10.3
2023-04-29T07:00:02.088Z,10.3
2023-04-29T07:07:01.368Z,10.31
2023-04-29T07:14:02.109Z,10.42
2023-04-29T07:21:02.258Z,10.42
2023-04-29T07:28:01.917Z,10.35
2023-04-29T07:35:02.027Z,10.46
2023-04-29T07:42:02.291Z,10.46
2023-04-29T07:49:02.153Z,10.48
2023-04-29T07:56:01.595Z,10.44
2023-04-29T08:00:02.156Z,10.44
2023-04-29T08:07:02.137Z,10.43
2023-04-29T08:14:01.371Z,10.39
2023-04-29T08:21:01.893Z,10.39
2023-04-29T08:28:02.255Z,10.55
2023-04-29T08:35:02.430Z,10.6
2023-04-29T08:42:01.945Z,10.63
2023-04-29T08:49:02.110Z,10.63
2023-04-29T08:56:01.990Z,10.66
2023-04-29T09:00:01.564Z,10.66
2023-04-29T09:07:01.596Z,10.62
2023-04-29T09:14:01.885Z,10.63
2023-04-29T09:21:01.994Z,10.73
2023-04-29T09:28:02.115Z,10.73
2023-04-29T09:35:02.131Z,10.69
2023-04-29T09:42:02.112Z,10.7
2023-04-29T09:49:02.141Z,10.75
2023-04-29T09:56:01.805Z,10.75
2023-04-29T10:00:02.365Z,10.8
2023-04-29T10:07:01.429Z,10.8
2023-04-29T10:14:01.941Z,10.8
2023-04-29T10:21:02.239Z,10.78
2023-04-29T10:28:02.168Z,10.88
2023-04-29T10:35:02.325Z,10.88
2023-04-29T10:42:02.081Z,10.83
2023-04-29T10:49:02.129Z,10.89
2023-04-29T10:56:02.300Z,10.89
2023-04-29T11:00:01.871Z,11.07
2023-04-29T11:07:01.791Z,11.15
2023-04-29T11:14:01.996Z,11.15
2023-04-29T11:21:01.365Z,11.45
2023-04-29T11:28:01.851Z,11.6
2023-04-29T11:35:01.902Z,11.69
2023-04-29T11:42:02.299Z,11.69
2023-04-29T11:49:01.976Z,11.89
2023-04-29T11:56:01.581Z,12.03
2023-04-29T12:00:02.237Z,12.03
2023-04-29T12:07:02.251Z,12.2
2023-04-29T12:14:01.465Z,12.36
2023-04-29T12:21:01.617Z,12.36
2023-04-29T12:28:01.533Z,12.56
2023-04-29T12:35:02.401Z,12.75
2023-04-29T12:42:02.229Z,12.75
2023-04-29T12:49:02.222Z,12.92
2023-04-29T12:56:01.997Z,13.05
2023-04-29T13:00:01.611Z,13.05
2023-04-29T13:07:01.600Z,13.12
2023-04-29T13:14:01.621Z,13.34
2023-04-29T13:21:02.733Z,13.34
2023-04-29T13:28:01.556Z,13.23
2023-04-29T13:35:01.938Z,13.24
2023-04-29T13:42:02.128Z,13.21
2023-04-29T13:49:31.942Z,13.21
2023-04-29T13:56:53.320Z,13.26
2023-04-29T14:00:09.605Z,13.15
2023-04-29T14:07:01.942Z,13.15
2023-04-29T14:14:02.098Z,13.18
2023-04-29T14:21:02.169Z,13.07
2023-04-29T14:28:01.869Z,13.07
2023-04-29T14:35:02.151Z,13.05
2023-04-29T14:42:03.772Z,13.12
2023-04-29T14:49:01.968Z,13.15
2023-04-29T14:56:01.574Z,13.15
2023-04-29T15:00:02.206Z,13.25
2023-04-29T15:07:01.514Z,13.25
2023-04-29T15:14:01.789Z,13.31
2023-04-29T15:21:01.675Z,13.34
2023-04-29T15:28:02.272Z,13.36
2023-04-29T15:35:02.227Z,13.36
2023-04-29T15:42:01.598Z,13.48
2023-04-29T15:49:01.756Z,13.54
2023-04-29T15:56:02.157Z,13.64
2023-04-29T16:00:01.770Z,13.64
2023-04-29T16:07:01.538Z,13.72
2023-04-29T16:14:02.101Z,13.72
2023-04-29T16:21:02.253Z,13.76
2023-04-29T16:28:01.540Z,13.7
2023-04-29T16:35:02.170Z,13.63
2023-04-29T16:42:02.150Z,13.63
2023-04-29T16:49:01.951Z,13.76
2023-04-29T16:56:01.856Z,13.65
2023-04-29T17:00:02.442Z,13.65
2023-04-29T17:07:01.959Z,13.71
2023-04-29T17:14:01.844Z,13.71
2023-04-29T17:21:01.605Z,13.71
2023-04-29T17:28:01.815Z,13.72
2023-04-29T17:35:01.952Z,13.76
2023-04-29T17:42:02.206Z,13.76
2023-04-29T17:49:01.548Z,13.74
2023-04-29T17:56:02.026Z,13.63
2023-04-29T18:00:01.558Z,13.63
2023-04-29T18:07:02.071Z,13.69
2023-04-29T18:14:02.166Z,13.57
2023-04-29T18:21:02.239Z,13.56
2023-04-29T18:28:18.713Z,13.56
2023-04-29T18:35:02.061Z,13.57
2023-04-29T18:42:02.107Z,13.5
2023-04-29T18:49:01.700Z,13.5
2023-04-29T18:56:01.941Z,13.43
2023-04-29T19:00:01.499Z,13.52
2023-04-29T19:07:01.483Z,13.52
2023-04-29T19:14:01.800Z,13.48
2023-04-29T19:21:01.791Z,13.4
2023-04-29T19:28:01.720Z,13.4
2023-04-29T19:35:01.522Z,12.74
2023-04-29T19:42:01.966Z,13.39
2023-04-29T19:49:01.677Z,13.24
2023-04-29T19:56:02.196Z,13.24
2023-04-29T20:00:01.770Z,13.16
2023-04-29T20:07:01.731Z,13.16
2023-04-29T20:14:02.284Z,13.05
2023-04-29T20:21:01.638Z,12.96
2023-04-29T20:28:02.100Z,12.73
2023-04-29T20:35:01.635Z,12.73
2023-04-29T20:42:02.212Z,12.78
2023-04-29T20:49:01.475Z,12.55
2023-04-29T20:56:02.147Z,12.5
2023-04-29T21:00:01.783Z,12.5
2023-04-29T21:07:02.126Z,12.41
2023-04-29T21:14:01.337Z,12.41
2023-04-29T21:21:01.378Z,12.14
2023-04-29T21:28:01.545Z,11.96
2023-04-29T21:35:01.833Z,11.84
2023-04-29T21:42:02.078Z,11.84
2023-04-29T21:49:02.151Z,11.62
2023-04-29T21:56:01.823Z,11.81
2023-04-29T22:00:02.535Z,11.81
2023-04-29T22:07:02.165Z,11.55
2023-04-29T22:14:01.754Z,11.77
2023-04-29T22:21:02.147Z,11.77
2023-04-29T22:28:01.721Z,11.67
2023-04-29T22:35:01.719Z,11.48
2023-04-29T22:42:02.095Z,11.42
2023-04-29T22:49:02.000Z,11.42
2023-04-29T22:56:01.900Z,11.33
2023-04-29T23:00:02.550Z,11.33
2023-04-29T23:07:01.996Z,11.35
2023-04-29T23:14:01.485Z,11.31
2023-04-29T23:21:01.645Z,11.09
2023-04-29T23:28:01.339Z,11.09
2023-04-29T23:35:01.996Z,11.13
2023-04-29T23:42:01.960Z,10.79
2023-04-29T23:49:01.589Z,10.97
2023-04-29T23:56:01.472Z,10.97
